sensor_id;sensor_type;location;lat;lon;timestamp;P1;durP1;ratioP1;P2;durP2;ratioP2
4857;SDS011;58975;51.978;8.472;2022-12-16T00:03:12;28.40;;;13.88;;
4857;SDS011;58975;51.978;8.472;2022-12-16T00:08:09;30.05;;;11.07;;
4857;SDS011;58975;51.978;8.472;2022-12-16T00:13:05;27.50;;;13.45;;
4857;SDS011;58975;51.978;8.472;2022-12-16T00:18:05;24.10;;;12.43;;
4857;SDS011;58975;51.978;8.472;2022-12-16T00:23:02;26.50;;;12.43;;
4857;SDS011;58975;51.978;8.472;2022-12-16T00:27:58;29.00;;;11.73;;
4857;SDS011;58975;51.978;8.472;2022-12-16T00:32:55;30.75;;;13.07;;
4857;SDS011;58975;51.978;8.472;2022-12-16T00:37:52;27.92;;;12.40;;
4857;SDS011;58975;51.978;8.472;2022-12-16T00:42:48;30.02;;;12.85;;
4857;SDS011;58975;51.978;8.472;2022-12-16T00:47:45;28.17;;;12.65;;
4857;SDS011;58975;51.978;8.472;2022-12-16T00:52:41;25.00;;;12.35;;
4857;SDS011;58975;51.978;8.472;2022-12-16T00:57:38;31.83;;;13.55;;
4857;SDS011;58975;51.978;8.472;2022-12-16T01:02:34;24.08;;;12.50;;
4857;SDS011;58975;51.978;8.472;2022-12-16T01:07:31;26.38;;;12.63;;
4857;SDS011;58975;51.978;8.472;2022-12-16T01:12:27;26.63;;;12.43;;
4857;SDS011;58975;51.978;8.472;2022-12-16T01:17:23;24.05;;;11.65;;
4857;SDS011;58975;51.978;8.472;2022-12-16T01:22:23;25.17;;;11.48;;
4857;SDS011;58975;51.978;8.472;2022-12-16T01:27:20;26.50;;;11.68;;
4857;SDS011;58975;51.978;8.472;2022-12-16T01:32:16;20.85;;;10.35;;
4857;SDS011;58975;51.978;8.472;2022-12-16T01:37:14;26.30;;;11.32;;
4857;SDS011;58975;51.978;8.472;2022-12-16T01:42:14;26.42;;;12.20;;
4857;SDS011;58975;51.978;8.472;2022-12-16T01:47:13;23.55;;;12.25;;
4857;SDS011;58975;51.978;8.472;2022-12-16T01:52:14;26.60;;;12.35;;
4857;SDS011;58975;51.978;8.472;2022-12-16T01:57:17;27.08;;;12.30;;
4857;SDS011;58975;51.978;8.472;2022-12-16T02:02:17;25.75;;;11.82;;
4857;SDS011;58975;51.978;8.472;2022-12-16T02:07:15;24.88;;;12.00;;
4857;SDS011;58975;51.978;8.472;2022-12-16T02:38:06;26.00;;;11.88;;
4857;SDS011;58975;51.978;8.472;2022-12-16T02:43:40;24.05;;;10.70;;
4857;SDS011;58975;51.978;8.472;2022-12-16T02:48:38;25.73;;;10.60;;
4857;SDS011;58975;51.978;8.472;2022-12-16T02:53:35;19.70;;;8.75;;
4857;SDS011;58975;51.978;8.472;2022-12-16T03:09:08;25.08;;;11.27;;
4857;SDS011;58975;51.978;8.472;2022-12-16T03:14:07;19.13;;;10.52;;
4857;SDS011;58975;51.978;8.472;2022-12-16T03:19:07;27.92;;;11.65;;
4857;SDS011;58975;51.978;8.472;2022-12-16T03:24:07;18.60;;;10.35;;
4857;SDS011;58975;51.978;8.472;2022-12-16T03:29:23;22.73;;;11.00;;
4857;SDS011;58975;51.978;8.472;2022-12-16T03:39:33;28.45;;;12.00;;
4857;SDS011;58975;51.978;8.472;2022-12-16T03:44:51;26.33;;;10.52;;
4857;SDS011;58975;51.978;8.472;2022-12-16T03:49:48;26.85;;;11.85;;
4857;SDS011;58975;51.978;8.472;2022-12-16T03:54:44;27.20;;;10.85;;
4857;SDS011;58975;51.978;8.472;2022-12-16T03:59:41;27.23;;;11.25;;
4857;SDS011;58975;51.978;8.472;2022-12-16T04:04:38;29.98;;;12.30;;
4857;SDS011;58975;51.978;8.472;2022-12-16T04:09:34;32.03;;;12.05;;
4857;SDS011;58975;51.978;8.472;2022-12-16T04:14:30;31.00;;;14.27;;
4857;SDS011;58975;51.978;8.472;2022-12-16T04:19:48;27.20;;;10.63;;
4857;SDS011;58975;51.978;8.472;2022-12-16T04:25:06;32.28;;;13.07;;
4857;SDS011;58975;51.978;8.472;2022-12-16T04:30:06;25.10;;;12.65;;
4857;SDS011;58975;51.978;8.472;2022-12-16T04:35:14;23.65;;;10.70;;
4857;SDS011;58975;51.978;8.472;2022-12-16T04:40:29;26.83;;;10.20;;
4857;SDS011;58975;51.978;8.472;2022-12-16T04:45:45;19.23;;;9.80;;
4857;SDS011;58975;51.978;8.472;2022-12-16T04:51:01;25.02;;;10.63;;
4857;SDS011;58975;51.978;8.472;2022-12-16T04:56:26;23.42;;;10.90;;
4857;SDS011;58975;51.978;8.472;2022-12-16T05:01:41;27.95;;;10.23;;
4857;SDS011;58975;51.978;8.472;2022-12-16T05:06:57;21.33;;;10.57;;
4857;SDS011;58975;51.978;8.472;2022-12-16T05:12:12;24.60;;;11.75;;
4857;SDS011;58975;51.978;8.472;2022-12-16T05:17:27;26.33;;;11.18;;
4857;SDS011;58975;51.978;8.472;2022-12-16T05:22:42;27.52;;;12.07;;
4857;SDS011;58975;51.978;8.472;2022-12-16T05:27:57;23.13;;;10.10;;
4857;SDS011;58975;51.978;8.472;2022-12-16T05:33:12;22.38;;;10.13;;
4857;SDS011;58975;51.978;8.472;2022-12-16T05:38:28;24.45;;;10.23;;
4857;SDS011;58975;51.978;8.472;2022-12-16T05:43:43;23.23;;;11.07;;
4857;SDS011;58975;51.978;8.472;2022-12-16T05:48:58;22.55;;;10.27;;
4857;SDS011;58975;51.978;8.472;2022-12-16T05:54:13;22.20;;;10.77;;
4857;SDS011;58975;51.978;8.472;2022-12-16T05:59:28;21.73;;;10.18;;
4857;SDS011;58975;51.978;8.472;2022-12-16T06:04:44;20.35;;;10.38;;
4857;SDS011;58975;51.978;8.472;2022-12-16T06:09:59;19.48;;;9.30;;
4857;SDS011;58975;51.978;8.472;2022-12-16T06:15:14;25.90;;;9.63;;
4857;SDS011;58975;51.978;8.472;2022-12-16T06:20:29;22.15;;;9.07;;
4857;SDS011;58975;51.978;8.472;2022-12-16T06:25:44;17.33;;;8.65;;
4857;SDS011;58975;51.978;8.472;2022-12-16T06:30:59;17.15;;;8.38;;
4857;SDS011;58975;51.978;8.472;2022-12-16T06:36:14;18.35;;;9.32;;
4857;SDS011;58975;51.978;8.472;2022-12-16T06:41:29;16.13;;;8.07;;
4857;SDS011;58975;51.978;8.472;2022-12-16T06:46:43;19.67;;;9.18;;
4857;SDS011;58975;51.978;8.472;2022-12-16T06:51:58;18.70;;;9.40;;
4857;SDS011;58975;51.978;8.472;2022-12-16T06:57:13;20.30;;;9.98;;
4857;SDS011;58975;51.978;8.472;2022-12-16T07:02:28;24.88;;;10.40;;
4857;SDS011;58975;51.978;8.472;2022-12-16T07:07:47;25.63;;;11.00;;
4857;SDS011;58975;51.978;8.472;2022-12-16T07:13:03;19.63;;;7.80;;
4857;SDS011;58975;51.978;8.472;2022-12-16T07:18:18;31.90;;;9.20;;
4857;SDS011;58975;51.978;8.472;2022-12-16T07:23:33;18.67;;;9.88;;
4857;SDS011;58975;51.978;8.472;2022-12-16T07:28:49;22.00;;;10.63;;
4857;SDS011;58975;51.978;8.472;2022-12-16T07:34:04;21.10;;;9.57;;
4857;SDS011;58975;51.978;8.472;2022-12-16T07:39:19;20.23;;;10.18;;
4857;SDS011;58975;51.978;8.472;2022-12-16T07:44:36;14.48;;;7.60;;
4857;SDS011;58975;51.978;8.472;2022-12-16T07:49:51;20.35;;;9.23;;
4857;SDS011;58975;51.978;8.472;2022-12-16T07:55:06;15.43;;;7.72;;
4857;SDS011;58975;51.978;8.472;2022-12-16T08:00:22;18.20;;;7.95;;
4857;SDS011;58975;51.978;8.472;2022-12-16T08:05:37;19.10;;;7.90;;
4857;SDS011;58975;51.978;8.472;2022-12-16T08:10:52;19.52;;;7.75;;
4857;SDS011;58975;51.978;8.472;2022-12-16T08:16:06;16.58;;;8.02;;
4857;SDS011;58975;51.978;8.472;2022-12-16T08:21:22;23.33;;;9.18;;
4857;SDS011;58975;51.978;8.472;2022-12-16T08:26:37;21.67;;;9.90;;
4857;SDS011;58975;51.978;8.472;2022-12-16T08:31:52;21.17;;;10.25;;
4857;SDS011;58975;51.978;8.472;2022-12-16T08:37:07;25.15;;;9.68;;
4857;SDS011;58975;51.978;8.472;2022-12-16T08:42:22;20.80;;;8.75;;
4857;SDS011;58975;51.978;8.472;2022-12-16T08:47:38;30.40;;;9.73;;
4857;SDS011;58975;51.978;8.472;2022-12-16T08:52:53;25.08;;;9.98;;
4857;SDS011;58975;51.978;8.472;2022-12-16T08:58:08;17.67;;;9.30;;
4857;SDS011;58975;51.978;8.472;2022-12-16T09:03:23;18.48;;;8.18;;
4857;SDS011;58975;51.978;8.472;2022-12-16T09:08:39;12.73;;;6.43;;
4857;SDS011;58975;51.978;8.472;2022-12-16T09:14:07;20.30;;;7.78;;
4857;SDS011;58975;51.978;8.472;2022-12-16T09:19:22;13.05;;;6.15;;
4857;SDS011;58975;51.978;8.472;2022-12-16T09:24:37;14.15;;;7.45;;
4857;SDS011;58975;51.978;8.472;2022-12-16T09:29:52;13.25;;;6.18;;
4857;SDS011;58975;51.978;8.472;2022-12-16T09:35:07;16.33;;;6.93;;
4857;SDS011;58975;51.978;8.472;2022-12-16T09:40:23;15.00;;;7.38;;
4857;SDS011;58975;51.978;8.472;2022-12-16T09:51:03;16.65;;;7.45;;
4857;SDS011;58975;51.978;8.472;2022-12-16T09:56:29;17.55;;;8.20;;
4857;SDS011;58975;51.978;8.472;2022-12-16T10:01:49;13.98;;;7.65;;
4857;SDS011;58975;51.978;8.472;2022-12-16T10:07:16;14.38;;;7.40;;
4857;SDS011;58975;51.978;8.472;2022-12-16T10:12:36;14.90;;;7.35;;
4857;SDS011;58975;51.978;8.472;2022-12-16T10:18:03;17.80;;;6.97;;
4857;SDS011;58975;51.978;8.472;2022-12-16T10:23:29;13.77;;;6.82;;
4857;SDS011;58975;51.978;8.472;2022-12-16T10:28:58;17.27;;;7.28;;
4857;SDS011;58975;51.978;8.472;2022-12-16T10:34:29;14.20;;;7.47;;
4857;SDS011;58975;51.978;8.472;2022-12-16T10:39:50;21.85;;;7.85;;
4857;SDS011;58975;51.978;8.472;2022-12-16T10:50:39;19.10;;;8.48;;
4857;SDS011;58975;51.978;8.472;2022-12-16T11:01:57;26.45;;;7.97;;
4857;SDS011;58975;51.978;8.472;2022-12-16T11:12:52;16.73;;;9.18;;
4857;SDS011;58975;51.978;8.472;2022-12-16T11:18:08;13.38;;;7.80;;
4857;SDS011;58975;51.978;8.472;2022-12-16T11:23:28;27.45;;;9.23;;
4857;SDS011;58975;51.978;8.472;2022-12-16T11:29:11;17.48;;;9.18;;
4857;SDS011;58975;51.978;8.472;2022-12-16T11:34:31;20.77;;;9.52;;
4857;SDS011;58975;51.978;8.472;2022-12-16T11:39:48;24.38;;;10.13;;
4857;SDS011;58975;51.978;8.472;2022-12-16T11:45:04;19.38;;;10.40;;
4857;SDS011;58975;51.978;8.472;2022-12-16T11:50:27;19.05;;;9.65;;
4857;SDS011;58975;51.978;8.472;2022-12-16T11:55:47;20.88;;;10.07;;
4857;SDS011;58975;51.978;8.472;2022-12-16T12:01:13;18.42;;;9.10;;
4857;SDS011;58975;51.978;8.472;2022-12-16T12:06:49;23.25;;;10.75;;
4857;SDS011;58975;51.978;8.472;2022-12-16T12:23:17;27.02;;;14.63;;
4857;SDS011;58975;51.978;8.472;2022-12-16T12:28:55;21.60;;;11.20;;
4857;SDS011;58975;51.978;8.472;2022-12-16T12:40:15;21.13;;;10.77;;
4857;SDS011;58975;51.978;8.472;2022-12-16T12:45:52;23.95;;;11.25;;
4857;SDS011;58975;51.978;8.472;2022-12-16T12:51:28;25.55;;;10.75;;
4857;SDS011;58975;51.978;8.472;2022-12-16T12:56:49;22.98;;;9.55;;
4857;SDS011;58975;51.978;8.472;2022-12-16T13:02:07;17.17;;;9.17;;
4857;SDS011;58975;51.978;8.472;2022-12-16T13:07:30;19.88;;;9.32;;
4857;SDS011;58975;51.978;8.472;2022-12-16T13:12:46;20.38;;;9.68;;
4857;SDS011;58975;51.978;8.472;2022-12-16T13:18:31;17.40;;;7.90;;
4857;SDS011;58975;51.978;8.472;2022-12-16T13:23:47;20.15;;;9.48;;
4857;SDS011;58975;51.978;8.472;2022-12-16T13:29:15;24.77;;;9.75;;
4857;SDS011;58975;51.978;8.472;2022-12-16T13:34:34;17.67;;;9.25;;
4857;SDS011;58975;51.978;8.472;2022-12-16T13:40:05;20.35;;;9.50;;
4857;SDS011;58975;51.978;8.472;2022-12-16T13:45:43;15.32;;;8.30;;
4857;SDS011;58975;51.978;8.472;2022-12-16T13:56:51;19.13;;;8.60;;
4857;SDS011;58975;51.978;8.472;2022-12-16T14:02:34;16.20;;;9.05;;
4857;SDS011;58975;51.978;8.472;2022-12-16T14:07:52;16.83;;;7.45;;
4857;SDS011;58975;51.978;8.472;2022-12-16T14:19:03;15.85;;;7.68;;
4857;SDS011;58975;51.978;8.472;2022-12-16T14:24:26;15.93;;;7.63;;
4857;SDS011;58975;51.978;8.472;2022-12-16T14:29:41;16.70;;;8.52;;
4857;SDS011;58975;51.978;8.472;2022-12-16T14:34:59;16.15;;;7.93;;
4857;SDS011;58975;51.978;8.472;2022-12-16T14:40:22;14.97;;;8.67;;
4857;SDS011;58975;51.978;8.472;2022-12-16T14:45:48;18.88;;;9.35;;
4857;SDS011;58975;51.978;8.472;2022-12-16T14:51:14;16.77;;;8.38;;
4857;SDS011;58975;51.978;8.472;2022-12-16T14:56:43;19.13;;;8.43;;
4857;SDS011;58975;51.978;8.472;2022-12-16T15:01:59;15.85;;;7.65;;
4857;SDS011;58975;51.978;8.472;2022-12-16T15:07:26;11.77;;;5.50;;
4857;SDS011;58975;51.978;8.472;2022-12-16T15:12:51;13.82;;;7.57;;
4857;SDS011;58975;51.978;8.472;2022-12-16T15:18:21;17.27;;;8.50;;
4857;SDS011;58975;51.978;8.472;2022-12-16T15:23:41;23.33;;;9.50;;
4857;SDS011;58975;51.978;8.472;2022-12-16T15:28:58;16.63;;;8.77;;
4857;SDS011;58975;51.978;8.472;2022-12-16T15:39:39;19.48;;;9.13;;
4857;SDS011;58975;51.978;8.472;2022-12-16T15:44:55;13.07;;;8.27;;
4857;SDS011;58975;51.978;8.472;2022-12-16T15:50:12;14.32;;;8.88;;
4857;SDS011;58975;51.978;8.472;2022-12-16T15:55:38;20.98;;;9.20;;
4857;SDS011;58975;51.978;8.472;2022-12-16T16:01:00;21.77;;;9.05;;
4857;SDS011;58975;51.978;8.472;2022-12-16T16:06:22;19.90;;;9.95;;
4857;SDS011;58975;51.978;8.472;2022-12-16T16:11:39;20.23;;;9.32;;
4857;SDS011;58975;51.978;8.472;2022-12-16T16:16:55;22.33;;;10.23;;
4857;SDS011;58975;51.978;8.472;2022-12-16T16:22:14;19.13;;;10.65;;
4857;SDS011;58975;51.978;8.472;2022-12-16T16:27:32;24.73;;;9.43;;
4857;SDS011;58975;51.978;8.472;2022-12-16T16:32:47;23.63;;;10.65;;
4857;SDS011;58975;51.978;8.472;2022-12-16T16:38:02;17.63;;;9.38;;
4857;SDS011;58975;51.978;8.472;2022-12-16T16:43:17;19.42;;;9.57;;
4857;SDS011;58975;51.978;8.472;2022-12-16T16:48:32;27.88;;;11.02;;
4857;SDS011;58975;51.978;8.472;2022-12-16T16:53:47;23.88;;;11.07;;
4857;SDS011;58975;51.978;8.472;2022-12-16T16:59:03;31.95;;;12.48;;
4857;SDS011;58975;51.978;8.472;2022-12-16T17:04:18;28.42;;;9.90;;
4857;SDS011;58975;51.978;8.472;2022-12-16T17:09:34;25.90;;;11.85;;
4857;SDS011;58975;51.978;8.472;2022-12-16T17:14:51;16.23;;;9.60;;
4857;SDS011;58975;51.978;8.472;2022-12-16T17:20:06;20.50;;;10.73;;
4857;SDS011;58975;51.978;8.472;2022-12-16T17:25:22;18.90;;;9.75;;
4857;SDS011;58975;51.978;8.472;2022-12-16T17:30:37;22.30;;;10.55;;
4857;SDS011;58975;51.978;8.472;2022-12-16T17:35:53;24.58;;;12.02;;
4857;SDS011;58975;51.978;8.472;2022-12-16T17:41:08;22.90;;;12.07;;
4857;SDS011;58975;51.978;8.472;2022-12-16T17:46:23;25.35;;;13.48;;
4857;SDS011;58975;51.978;8.472;2022-12-16T17:51:38;30.48;;;12.75;;
4857;SDS011;58975;51.978;8.472;2022-12-16T17:56:54;28.02;;;12.40;;
4857;SDS011;58975;51.978;8.472;2022-12-16T18:02:10;30.02;;;14.45;;
4857;SDS011;58975;51.978;8.472;2022-12-16T18:07:26;30.77;;;16.10;;
4857;SDS011;58975;51.978;8.472;2022-12-16T18:12:41;37.30;;;17.05;;
4857;SDS011;58975;51.978;8.472;2022-12-16T18:17:56;31.15;;;14.43;;
4857;SDS011;58975;51.978;8.472;2022-12-16T18:23:11;30.08;;;15.38;;
4857;SDS011;58975;51.978;8.472;2022-12-16T18:28:27;34.75;;;15.40;;
4857;SDS011;58975;51.978;8.472;2022-12-16T18:33:42;37.67;;;17.40;;
4857;SDS011;58975;51.978;8.472;2022-12-16T18:38:57;32.80;;;15.48;;
4857;SDS011;58975;51.978;8.472;2022-12-16T18:44:12;36.13;;;16.67;;
4857;SDS011;58975;51.978;8.472;2022-12-16T18:49:27;38.60;;;16.38;;
4857;SDS011;58975;51.978;8.472;2022-12-16T18:54:42;28.98;;;15.00;;
4857;SDS011;58975;51.978;8.472;2022-12-16T18:59:59;42.13;;;17.85;;
4857;SDS011;58975;51.978;8.472;2022-12-16T19:05:14;38.10;;;17.70;;
4857;SDS011;58975;51.978;8.472;2022-12-16T19:10:29;37.30;;;16.73;;
4857;SDS011;58975;51.978;8.472;2022-12-16T19:15:54;38.45;;;17.35;;
4857;SDS011;58975;51.978;8.472;2022-12-16T19:21:10;39.08;;;20.23;;
4857;SDS011;58975;51.978;8.472;2022-12-16T19:26:24;51.72;;;24.13;;
4857;SDS011;58975;51.978;8.472;2022-12-16T19:31:40;48.35;;;22.85;;
4857;SDS011;58975;51.978;8.472;2022-12-16T19:36:55;56.25;;;24.58;;
4857;SDS011;58975;51.978;8.472;2022-12-16T19:42:10;49.28;;;22.38;;
4857;SDS011;58975;51.978;8.472;2022-12-16T19:47:26;42.30;;;19.30;;
4857;SDS011;58975;51.978;8.472;2022-12-16T19:52:40;56.83;;;24.17;;
4857;SDS011;58975;51.978;8.472;2022-12-16T19:57:56;48.33;;;21.50;;
4857;SDS011;58975;51.978;8.472;2022-12-16T20:03:14;50.53;;;21.10;;
4857;SDS011;58975;51.978;8.472;2022-12-16T20:08:30;43.38;;;21.38;;
4857;SDS011;58975;51.978;8.472;2022-12-16T20:13:46;52.30;;;23.25;;
4857;SDS011;58975;51.978;8.472;2022-12-16T20:19:01;48.47;;;22.55;;
4857;SDS011;58975;51.978;8.472;2022-12-16T20:24:16;48.88;;;22.85;;
4857;SDS011;58975;51.978;8.472;2022-12-16T20:29:31;40.42;;;19.52;;
4857;SDS011;58975;51.978;8.472;2022-12-16T20:34:46;39.38;;;18.77;;
4857;SDS011;58975;51.978;8.472;2022-12-16T20:40:02;46.72;;;19.42;;
4857;SDS011;58975;51.978;8.472;2022-12-16T20:45:17;39.28;;;20.02;;
4857;SDS011;58975;51.978;8.472;2022-12-16T20:50:33;41.40;;;20.40;;
4857;SDS011;58975;51.978;8.472;2022-12-16T20:55:51;50.60;;;21.17;;
4857;SDS011;58975;51.978;8.472;2022-12-16T21:01:06;48.20;;;23.33;;
4857;SDS011;58975;51.978;8.472;2022-12-16T21:06:21;44.80;;;20.20;;
4857;SDS011;58975;51.978;8.472;2022-12-16T21:11:36;50.88;;;21.17;;
4857;SDS011;58975;51.978;8.472;2022-12-16T21:16:51;46.47;;;20.30;;
4857;SDS011;58975;51.978;8.472;2022-12-16T21:22:06;47.50;;;20.25;;
4857;SDS011;58975;51.978;8.472;2022-12-16T21:27:21;42.70;;;19.75;;
4857;SDS011;58975;51.978;8.472;2022-12-16T21:32:36;46.95;;;21.17;;
4857;SDS011;58975;51.978;8.472;2022-12-16T21:37:52;39.10;;;17.98;;
4857;SDS011;58975;51.978;8.472;2022-12-16T21:43:07;40.58;;;18.58;;
4857;SDS011;58975;51.978;8.472;2022-12-16T21:48:22;53.17;;;19.23;;
4857;SDS011;58975;51.978;8.472;2022-12-16T21:53:37;42.90;;;18.65;;
4857;SDS011;58975;51.978;8.472;2022-12-16T21:58:56;39.63;;;17.77;;
4857;SDS011;58975;51.978;8.472;2022-12-16T22:04:11;43.90;;;18.25;;
4857;SDS011;58975;51.978;8.472;2022-12-16T22:09:26;37.03;;;17.15;;
4857;SDS011;58975;51.978;8.472;2022-12-16T22:14:41;39.53;;;15.88;;
4857;SDS011;58975;51.978;8.472;2022-12-16T22:19:56;36.63;;;17.35;;
4857;SDS011;58975;51.978;8.472;2022-12-16T22:25:11;38.85;;;17.90;;
4857;SDS011;58975;51.978;8.472;2022-12-16T22:30:26;43.28;;;17.73;;
4857;SDS011;58975;51.978;8.472;2022-12-16T22:35:40;34.70;;;16.40;;
4857;SDS011;58975;51.978;8.472;2022-12-16T22:40:56;37.10;;;17.75;;
4857;SDS011;58975;51.978;8.472;2022-12-16T22:46:12;38.03;;;16.92;;
4857;SDS011;58975;51.978;8.472;2022-12-16T22:51:27;32.50;;;16.42;;
4857;SDS011;58975;51.978;8.472;2022-12-16T22:56:42;42.60;;;18.25;;
4857;SDS011;58975;51.978;8.472;2022-12-16T23:01:57;33.00;;;15.57;;
4857;SDS011;58975;51.978;8.472;2022-12-16T23:07:12;34.75;;;15.60;;
4857;SDS011;58975;51.978;8.472;2022-12-16T23:12:28;34.53;;;15.70;;
4857;SDS011;58975;51.978;8.472;2022-12-16T23:17:43;34.78;;;15.95;;
4857;SDS011;58975;51.978;8.472;2022-12-16T23:22:58;38.72;;;16.38;;
4857;SDS011;58975;51.978;8.472;2022-12-16T23:28:13;35.78;;;15.57;;
4857;SDS011;58975;51.978;8.472;2022-12-16T23:33:28;42.55;;;16.67;;
4857;SDS011;58975;51.978;8.472;2022-12-16T23:38:43;36.50;;;15.40;;
4857;SDS011;58975;51.978;8.472;2022-12-16T23:43:57;29.70;;;15.68;;
4857;SDS011;58975;51.978;8.472;2022-12-16T23:49:12;40.08;;;16.02;;
4857;SDS011;58975;51.978;8.472;2022-12-16T23:54:28;45.47;;;20.05;;
